createdAt,value
2019-05-20T00:02:04.766Z,16.18
2019-05-20T00:07:13.891Z,16.33
2019-05-20T00:12:22.974Z,17.25
2019-05-20T00:17:32.178Z,20.65
2019-05-20T00:22:41.369Z,18.53
2019-05-20T00:27:50.545Z,18.93
2019-05-20T00:32:59.624Z,20.65
2019-05-20T00:38:08.970Z,20.49
2019-05-20T00:43:18.067Z,20.01
2019-05-20T00:48:27.274Z,19.90
2019-05-20T00:53:36.435Z,15.70
2019-05-20T00:58:45.827Z,19.84
2019-05-20T01:03:54.943Z,23.70
2019-05-20T01:09:04.168Z,19.29
2019-05-20T01:14:13.259Z,19.50
2019-05-20T01:19:22.490Z,19.34
2019-05-20T01:24:31.650Z,18.29
2019-05-20T01:29:40.845Z,18.36
2019-05-20T01:34:49.911Z,18.64
2019-05-20T01:39:59.060Z,17.91
2019-05-20T01:45:08.154Z,17.08
2019-05-20T01:50:17.297Z,20.57
2019-05-20T01:55:26.377Z,17.94
2019-05-20T02:00:35.655Z,18.68
2019-05-20T02:05:44.789Z,18.10
2019-05-20T02:10:56.577Z,18.36
2019-05-20T02:16:02.529Z,18.29
2019-05-20T02:21:11.701Z,21.61
2019-05-20T02:26:20.758Z,18.59
2019-05-20T02:31:29.940Z,16.06
2019-05-20T02:36:39.022Z,13.66
2019-05-20T02:41:48.234Z,22.12
2019-05-20T02:46:57.319Z,13.73
2019-05-20T02:52:06.441Z,12.12
2019-05-20T02:57:15.620Z,12.18
2019-05-20T03:02:24.845Z,19.23
2019-05-20T03:07:33.909Z,15.03
2019-05-20T03:12:43.061Z,17.44
2019-05-20T03:17:52.174Z,14.15
2019-05-20T03:23:01.359Z,14.40
2019-05-20T03:28:10.444Z,17.35
2019-05-20T03:33:19.645Z,14.87
2019-05-20T03:38:28.803Z,18.78
2019-05-20T03:43:37.994Z,17.20
2019-05-20T03:48:47.067Z,16.55
2019-05-20T03:53:56.211Z,14.51
2019-05-20T03:59:05.299Z,13.06
2019-05-20T04:04:14.424Z,15.65
2019-05-20T04:09:23.539Z,20.10
2019-05-20T04:14:32.719Z,20.47
2019-05-20T04:19:41.748Z,17.72
2019-05-20T04:24:51.028Z,11.64
2019-05-20T04:30:00.098Z,17.36
2019-05-20T04:35:21.410Z,21.85
2019-05-20T04:40:17.873Z,16.41
2019-05-20T04:45:27.166Z,17.07
2019-05-20T04:50:36.281Z,15.05
2019-05-20T04:55:45.570Z,19.44
2019-05-20T05:00:54.695Z,14.49
2019-05-20T05:06:03.878Z,19.00
2019-05-20T05:11:13.002Z,15.27
2019-05-20T05:16:22.116Z,12.70
2019-05-20T05:21:31.208Z,14.69
2019-05-20T05:26:40.445Z,13.63
2019-05-20T05:31:49.497Z,11.90
2019-05-20T05:36:58.719Z,13.38
2019-05-20T05:42:07.791Z,11.16
2019-05-20T05:47:16.903Z,15.40
2019-05-20T05:52:25.950Z,12.96
2019-05-20T05:57:35.123Z,12.26
2019-05-20T06:02:44.248Z,16.45
2019-05-20T06:07:53.459Z,16.65
2019-05-20T06:13:02.577Z,13.94
2019-05-20T06:18:11.651Z,13.51
2019-05-20T06:23:20.706Z,14.71
2019-05-20T06:28:29.943Z,8.96
2019-05-20T06:33:39.001Z,8.98
2019-05-20T06:38:48.105Z,15.53
2019-05-20T06:43:57.200Z,11.80
2019-05-20T06:49:06.493Z,17.25
2019-05-20T06:54:15.578Z,11.17
2019-05-20T06:59:24.915Z,11.49
2019-05-20T07:04:34.027Z,7.65
2019-05-20T07:09:43.294Z,6.72
2019-05-20T07:14:52.408Z,9.67
2019-05-20T07:20:01.534Z,10.92
2019-05-20T07:25:10.654Z,9.93
2019-05-20T07:30:19.800Z,7.75
2019-05-20T07:35:30.970Z,8.05
2019-05-20T07:40:38.458Z,7.22
2019-05-20T07:45:47.555Z,8.73
2019-05-20T07:50:56.779Z,7.72
2019-05-20T07:56:05.837Z,6.88
2019-05-20T08:01:15.059Z,8.95
2019-05-20T08:06:24.272Z,7.06
2019-05-20T08:11:33.341Z,5.89
2019-05-20T08:16:42.463Z,6.22
2019-05-20T08:21:51.683Z,6.02
2019-05-20T08:27:00.776Z,6.31
2019-05-20T08:32:10.138Z,9.09
2019-05-20T08:37:19.304Z,11.03
2019-05-20T08:42:28.648Z,9.11
2019-05-20T08:47:37.743Z,6.65
2019-05-20T08:52:46.867Z,7.51
2019-05-20T08:57:56.042Z,8.37
2019-05-20T09:03:05.215Z,8.81
2019-05-20T09:08:14.244Z,8.00
2019-05-20T09:13:23.460Z,8.88
2019-05-20T09:18:32.729Z,7.71
2019-05-20T09:23:41.729Z,8.47
2019-05-20T09:28:50.893Z,9.80
2019-05-20T09:34:00.224Z,8.29
2019-05-20T09:39:09.627Z,7.18
2019-05-20T09:44:18.952Z,8.42
2019-05-20T09:49:28.148Z,6.70
2019-05-20T09:54:37.411Z,6.31
2019-05-20T09:59:46.497Z,6.97
2019-05-20T10:04:55.754Z,6.44
2019-05-20T10:10:04.877Z,7.17
2019-05-20T10:15:14.128Z,8.77
2019-05-20T10:20:23.217Z,7.16
2019-05-20T10:25:32.477Z,9.38
2019-05-20T10:30:41.562Z,8.97
2019-05-20T10:35:50.902Z,9.66
2019-05-20T10:41:00.036Z,9.92
2019-05-20T10:46:09.183Z,11.43
2019-05-20T10:51:18.343Z,10.03
2019-05-20T10:56:27.609Z,14.40
2019-05-20T11:01:36.738Z,13.64
2019-05-20T11:06:45.937Z,14.01
2019-05-20T11:11:55.303Z,12.80
2019-05-20T11:17:04.443Z,15.10
2019-05-20T11:22:13.568Z,12.10
2019-05-20T11:27:22.912Z,15.92
2019-05-20T11:32:32.044Z,15.91
2019-05-20T11:37:41.154Z,10.66
2019-05-20T11:42:50.251Z,12.50
2019-05-20T11:47:59.363Z,13.08
2019-05-20T11:53:08.456Z,13.75
2019-05-20T11:58:17.627Z,14.40
2019-05-20T12:03:26.671Z,12.30
2019-05-20T12:08:35.981Z,14.19
2019-05-20T12:13:45.066Z,13.84
2019-05-20T12:18:54.345Z,12.47
2019-05-20T12:24:03.441Z,18.43
2019-05-20T12:29:12.544Z,16.34
2019-05-20T12:34:21.649Z,13.66
2019-05-20T12:39:30.922Z,14.12
2019-05-20T12:44:39.967Z,14.05
2019-05-20T12:49:49.226Z,18.16
2019-05-20T12:55:08.169Z,13.48
2019-05-20T13:00:07.142Z,18.55
2019-05-20T13:05:16.265Z,14.10
2019-05-20T13:10:29.766Z,13.32
2019-05-20T13:15:34.188Z,13.41
2019-05-20T13:20:43.778Z,13.45
2019-05-20T13:25:52.647Z,14.52
2019-05-20T13:31:01.885Z,12.63
2019-05-20T13:36:11.035Z,11.70
2019-05-20T13:41:20.261Z,10.62
2019-05-20T13:46:29.379Z,11.87
2019-05-20T13:51:38.846Z,10.27
2019-05-20T13:56:47.183Z,10.50
2019-05-20T14:01:59.447Z,13.20
2019-05-20T14:06:59.009Z,15.67
2019-05-20T14:12:08.253Z,13.62
2019-05-20T14:17:17.356Z,16.68
2019-05-20T14:22:26.519Z,16.67
2019-05-20T14:27:35.602Z,14.63
2019-05-20T14:32:44.800Z,9.42
2019-05-20T14:37:53.907Z,9.44
2019-05-20T14:43:03.168Z,8.39
2019-05-20T14:48:12.297Z,8.76
2019-05-20T14:53:21.716Z,7.89
2019-05-20T14:58:31.032Z,8.28
2019-05-20T15:03:40.201Z,8.51
2019-05-20T15:08:49.288Z,7.05
2019-05-20T15:14:00.459Z,6.46
2019-05-20T15:19:07.141Z,6.91
2019-05-20T15:24:16.354Z,7.98
2019-05-20T15:29:28.335Z,6.90
2019-05-20T15:34:34.195Z,7.85
2019-05-20T15:39:43.355Z,6.22
2019-05-20T15:44:52.557Z,6.78
2019-05-20T15:50:03.743Z,8.31
2019-05-20T15:55:10.546Z,7.38
2019-05-20T16:00:19.836Z,7.31
2019-05-20T16:05:29.058Z,6.56
2019-05-20T16:10:38.159Z,6.48
2019-05-20T16:15:47.921Z,9.05
2019-05-20T16:20:57.098Z,9.05
2019-05-20T16:26:06.265Z,10.10
2019-05-20T16:31:15.420Z,10.29
2019-05-20T16:36:24.587Z,9.89
2019-05-20T16:41:33.672Z,7.86
2019-05-20T16:46:42.985Z,8.76
2019-05-20T16:51:52.120Z,7.91
2019-05-20T16:57:01.321Z,7.31
2019-05-20T17:02:10.395Z,7.75
2019-05-20T17:07:19.557Z,7.46
2019-05-20T17:12:28.695Z,9.72
2019-05-20T17:17:37.882Z,8.01
2019-05-20T17:22:46.991Z,7.07
2019-05-20T17:27:56.143Z,8.48
2019-05-20T17:33:05.265Z,8.48
2019-05-20T17:38:14.454Z,6.90
2019-05-20T17:43:23.506Z,8.70
2019-05-20T17:48:32.749Z,10.41
2019-05-20T17:53:41.839Z,8.22
2019-05-20T17:58:50.989Z,9.49
2019-05-20T18:04:00.099Z,10.40
2019-05-20T18:09:09.232Z,8.57
2019-05-20T18:14:18.365Z,10.07
2019-05-20T18:19:27.527Z,8.80
2019-05-20T18:24:36.677Z,11.75
2019-05-20T18:29:45.742Z,12.17
2019-05-20T18:34:54.819Z,9.69
2019-05-20T18:40:13.473Z,13.15
2019-05-20T18:45:12.750Z,11.27
2019-05-20T18:50:21.931Z,11.60
2019-05-20T18:55:34.319Z,12.83
2019-05-20T19:00:40.246Z,12.50
2019-05-20T19:05:49.369Z,11.36
2019-05-20T19:10:58.499Z,12.18
2019-05-20T19:16:07.789Z,11.30
2019-05-20T19:21:17.463Z,11.19
2019-05-20T19:26:26.551Z,16.95
2019-05-20T19:31:35.873Z,11.31
2019-05-20T19:36:44.959Z,13.30
2019-05-20T19:41:54.158Z,12.30
2019-05-20T19:47:03.386Z,17.69
2019-05-20T19:52:12.704Z,12.53
2019-05-20T19:57:21.786Z,13.80
2019-05-20T20:02:38.103Z,11.97
2019-05-20T20:07:37.174Z,12.20
2019-05-20T20:12:46.331Z,12.70
2019-05-20T20:17:55.395Z,10.76
2019-05-20T20:23:04.639Z,13.53
2019-05-20T20:28:13.737Z,11.82
2019-05-20T20:33:23.180Z,14.73
2019-05-20T20:38:32.282Z,14.90
2019-05-20T20:43:41.665Z,13.11
2019-05-20T20:48:50.742Z,11.55
2019-05-20T20:53:59.874Z,18.84
2019-05-20T20:59:07.946Z,19.44
2019-05-20T21:04:20.006Z,12.82
2019-05-20T21:09:19.151Z,14.37
2019-05-20T21:14:28.425Z,10.29
2019-05-20T21:19:37.521Z,8.91
2019-05-20T21:24:46.674Z,9.42
2019-05-20T21:29:55.736Z,10.65
2019-05-20T21:35:04.860Z,7.24
2019-05-20T21:40:13.943Z,9.68
2019-05-20T21:45:23.099Z,9.44
2019-05-20T21:50:32.175Z,10.51
2019-05-20T21:55:41.372Z,9.13
2019-05-20T22:00:50.443Z,11.28
2019-05-20T22:05:59.711Z,9.24
2019-05-20T22:11:08.852Z,10.80
2019-05-20T22:16:18.151Z,10.04
2019-05-20T22:21:27.251Z,11.69
2019-05-20T22:26:36.670Z,8.69
2019-05-20T22:31:45.772Z,14.26
2019-05-20T22:36:54.880Z,7.67
2019-05-20T22:42:04.011Z,10.69
2019-05-20T22:47:13.170Z,9.35
2019-05-20T22:52:22.302Z,9.56
2019-05-20T22:57:31.698Z,9.82
2019-05-20T23:02:40.790Z,12.63
2019-05-20T23:07:49.906Z,12.54
2019-05-20T23:12:59.025Z,11.58
2019-05-20T23:18:08.289Z,15.16
2019-05-20T23:23:17.394Z,13.49
2019-05-20T23:28:26.532Z,13.13
2019-05-20T23:33:35.603Z,14.51
2019-05-20T23:38:44.766Z,12.81
2019-05-20T23:43:53.926Z,14.37
2019-05-20T23:49:03.075Z,12.22
2019-05-20T23:54:12.191Z,12.09
2019-05-20T23:59:21.531Z,10.54
